Flight Track Log - Related Links

Times and Time Zones

All times are in EDT time to prevent confusion due to time zone crossing. See the TRS587 flight status page for this flight to view local times or setup timezone preferences in your user account.

Time Position Orientation Groundspeed Altitude Reporting Facility
EDT Latitude Longitude Course Direction KTS MPH feet Rate Location/Type
Thu 11:05:38 AM 28.4000 -81.3000 130° Southeast 171 197 900  Level Orlando TRACON
Thu 11:07:03 AM 28.3500 -81.2333 130° Southeast 242 278 2,700 1,531 Climbing Orlando TRACON
Thu 11:08:03 AM 28.3333 -81.1500 103° East 277 319 4,600 1,850 Climbing Orlando TRACON
Thu 11:09:03 AM 28.4000 -81.1000 33° Northeast 286 329 6,400 2,000 Climbing Orlando TRACON
Thu 11:10:03 AM 28.4667 -81.1333 336° Northwest 289 333 8,600 1,671 Climbing Orlando TRACON
Thu 11:11:41 AM 28.5914 -81.1808 342° North 309 356 10,800 1,291 Climbing Jacksonville Center
Thu 11:12:41 AM 28.6817 -81.2194 339° North 322 371 12,000 1,450 Climbing Jacksonville Center
Thu 11:13:41 AM 28.7761 -81.2581 340° North 343 395 13,700 1,500 Climbing Jacksonville Center
Thu 11:14:41 AM 28.8725 -81.2944 342° North 353 406 15,000 1,150 Climbing Jacksonville Center
Thu 11:15:41 AM 28.9733 -81.3403 338° Northwest 371 427 16,000 1,050 Climbing Jacksonville Center
Thu 11:16:41 AM 29.0803 -81.3839 340° North 387 445 17,100 1,150 Climbing Jacksonville Center
Thu 11:17:41 AM 29.1931 -81.3989 353° North 400 460 18,300 1,250 Climbing Jacksonville Center
Thu 11:18:41 AM 29.3122 -81.4114 355° North 416 479 19,600 1,200 Climbing Jacksonville Center
Thu 11:19:41 AM 29.4314 -81.4261 354° North 416 479 20,700 1,050 Climbing Jacksonville Center
Thu 11:20:41 AM 29.5525 -81.4361 356° North 428 493 21,700 1,067 Climbing Jacksonville Center
Thu 11:22:41 AM 29.7953 -81.4900 349° North 438 504 23,900 1,033 Climbing Jacksonville Center
Thu 11:23:41 AM 29.9169 -81.5361 342° North 443 510 24,800 800 Climbing Jacksonville Center
Thu 11:24:41 AM 30.0383 -81.5778 343° North 448 516 25,500 650 Climbing Jacksonville Center
Thu 11:25:41 AM 30.1619 -81.6242 342° North 459 528 26,100 600 Climbing Jacksonville Center
Thu 11:26:41 AM 30.2856 -81.6681 343° North 464 534 26,700 700 Climbing Jacksonville Center
Thu 11:27:41 AM 30.4156 -81.7147 343° North 469 540 27,500 950 Climbing Jacksonville Center
Thu 11:28:41 AM 30.5539 -81.7683 342° North 475 547 28,600 1,000 Climbing Jacksonville Center
Thu 11:29:41 AM 30.6794 -81.8178 341° North 480 552 29,500 950 Climbing Jacksonville Center
Thu 11:30:41 AM 30.8011 -81.8622 343° North 467 537 30,500 1,000 Climbing Jacksonville Center
Thu 11:31:41 AM 30.9225 -81.9094 342° North 462 532 31,500 1,000 Climbing Jacksonville Center
Thu 11:32:41 AM 31.0397 -81.9517 343° North 457 526 32,500 750 Climbing Jacksonville Center
Thu 11:33:41 AM 31.1592 -81.9967 342° North 444 511 33,000 250 Climbing Jacksonville Center
Thu 11:34:41 AM 31.2783 -82.0467 340° North 449 517 33,000  Level Jacksonville Center
Thu 11:35:41 AM 31.3997 -82.0917 342° North 442 509 33,000  Level Jacksonville Center
Thu 11:36:41 AM 31.5211 -82.1369 342° North 442 509 33,000  Level Jacksonville Center
Thu 11:38:45 AM 31.7603 -82.2242 343° North 470 541 33,000  Level Atlanta Center
Thu 11:39:45 AM 31.8781 -82.2706 342° North 457 526 33,000  Level Atlanta Center
Thu 11:40:45 AM 31.9997 -82.3172 342° North 457 526 33,000  Level Atlanta Center
Thu 11:41:45 AM 32.1172 -82.3639 341° North 451 519 33,000  Level Atlanta Center
Thu 11:42:45 AM 32.2367 -82.4108 342° North 451 519 33,000 200 Level Atlanta Center
Thu 11:43:45 AM 32.3647 -82.4625 341° North 446 513 33,400 500 Climbing Atlanta Center
Thu 11:44:45 AM 32.4844 -82.5172 339° North 446 513 34,000 300 Climbing Atlanta Center
Thu 11:45:45 AM 32.6017 -82.5494 347° North 446 513 34,000  Level Atlanta Center
Thu 11:46:45 AM 32.7192 -82.5994 340° North 446 513 34,000  Level Atlanta Center
Thu 11:47:45 AM 32.8386 -82.6469 342° North 446 513 34,000  Level Atlanta Center
Thu 11:48:45 AM 32.9539 -82.6897 343° North 446 513 34,000  Level Atlanta Center
Thu 11:49:45 AM 33.0736 -82.7375 342° North 441 507 34,000  Level Atlanta Center
Thu 11:50:45 AM 33.1889 -82.7853 341° North 441 507 34,000  Level Atlanta Center
Thu 11:51:45 AM 33.3061 -82.8333 341° North 441 507 34,000  Level Atlanta Center
Thu 11:52:45 AM 33.4233 -82.8764 343° North 444 511 34,000  Level Atlanta Center
Thu 11:53:45 AM 33.5428 -82.9222 342° North 439 505 34,000  Level Atlanta Center
Thu 11:54:45 AM 33.6581 -82.9681 342° North 440 506 34,000  Level Atlanta Center
Thu 11:55:45 AM 33.7753 -83.0167 341° North 440 506 34,000  Level Atlanta Center
Thu 11:56:45 AM 33.8925 -83.0628 342° North 446 513 34,000  Level Atlanta Center
Thu 11:57:45 AM 34.0078 -83.1067 342° North 435 501 34,000  Level Atlanta Center
Thu 11:58:45 AM 34.1250 -83.1556 341° North 435 501 34,000  Level Atlanta Center
Thu 11:59:45 AM 34.2422 -83.2019 342° North 435 501 34,000  Level Atlanta Center
Thu 12:00:45 PM 34.3553 -83.2511 340° North 435 501 34,000  Level Atlanta Center
Thu 12:01:45 PM 34.4725 -83.2956 343° North 435 501 34,000  Level Atlanta Center
Thu 12:02:45 PM 34.5875 -83.3400 342° North 442 509 34,000  Level Atlanta Center
Thu 12:03:45 PM 34.7006 -83.3944 338° Northwest 442 509 34,000  Level Atlanta Center
Thu 12:04:45 PM 34.8156 -83.4417 341° North 442 509 34,000  Level Atlanta Center
Thu 12:05:45 PM 34.9283 -83.4889 341° North 432 497 34,000  Level Atlanta Center
Thu 12:06:45 PM 35.0453 -83.5364 342° North 432 497 34,000  Level Atlanta Center
Thu 12:07:45 PM 35.1478 -83.5789 341° North 432 497 34,000  Level Atlanta Center
Thu 12:08:45 PM 35.2669 -83.6267 342° North 432 497 34,000  Level Atlanta Center
Thu 12:09:45 PM 35.3839 -83.6769 341° North 437 503 34,000  Level Atlanta Center
Thu 12:10:45 PM 35.5008 -83.7250 342° North 442 509 34,000  Level Atlanta Center
Thu 12:11:45 PM 35.6178 -83.7731 342° North 442 509 34,000  Level Atlanta Center
Thu 12:12:45 PM 35.7328 -83.8239 340° North 442 509 34,000  Level Atlanta Center
Thu 12:13:45 PM 35.8517 -83.8722 342° North 442 509 34,000  Level Atlanta Center
Thu 12:14:45 PM 35.9603 -83.9336 335° Northwest 442 509 34,000  Level Atlanta Center
Thu 12:15:45 PM 36.0625 -84.0131 328° Northwest 429 494 34,000  Level Atlanta Center
Thu 12:17:08 PM 36.1994 -84.1136 329° Northwest 432 497 34,000  Level Indianapolis Center
Thu 12:18:10 PM 36.3217 -84.2042 329° Northwest 429 494 34,000  Level Indianapolis Center
Thu 12:19:12 PM 36.4236 -84.2817 329° Northwest 430 495 34,000  Level Indianapolis Center
Thu 12:20:14 PM 36.5258 -84.3575 329° Northwest 433 498 34,000  Level Indianapolis Center
Thu 12:21:15 PM 36.6286 -84.4372 328° Northwest 433 498 34,000  Level Indianapolis Center
Thu 12:22:17 PM 36.7319 -84.5142 329° Northwest 433 498 34,000  Level Indianapolis Center
Thu 12:23:19 PM 36.8319 -84.5903 329° Northwest 425 489 34,000  Level Indianapolis Center
Thu 12:24:21 PM 36.9539 -84.6844 328° Northwest 429 494 34,000  Level Indianapolis Center
Thu 12:25:23 PM 37.0536 -84.7592 329° Northwest 424 488 34,000  Level Indianapolis Center
Thu 12:26:25 PM 37.1558 -84.8378 329° Northwest 428 493 34,000  Level Indianapolis Center
Thu 12:27:27 PM 37.2569 -84.9150 329° Northwest 426 490 34,000  Level Indianapolis Center
Thu 12:28:28 PM 37.3572 -84.9928 328° Northwest 422 486 34,000  Level Indianapolis Center
Thu 12:29:30 PM 37.4572 -85.0700 328° Northwest 421 484 34,000  Level Indianapolis Center
Thu 12:30:32 PM 37.5631 -85.1350 334° Northwest 424 488 34,000  Level Indianapolis Center
Thu 12:31:34 PM 37.6956 -85.1756 346° North 419 482 34,000  Level Indianapolis Center
Thu 12:32:36 PM 37.8122 -85.2100 347° North 422 486 34,000  Level Indianapolis Center
Thu 12:33:38 PM 37.9267 -85.2431 347° North 430 495 34,000 -97 Level Indianapolis Center
Thu 12:34:40 PM 38.0408 -85.2775 347° North 423 487 33,800 -439 Descending Indianapolis Center
Thu 12:35:41 PM 38.1544 -85.3128 346° North 421 484 33,100 -390 Descending Indianapolis Center
Thu 12:36:43 PM 38.2700 -85.3461 347° North 423 487 33,000 -48 Descending Indianapolis Center
Thu 12:37:45 PM 38.3872 -85.3839 346° North 431 496 33,000  Level Indianapolis Center
Thu 12:38:47 PM 38.5294 -85.4261 347° North 436 502 33,000  Level Indianapolis Center
Thu 12:39:49 PM 38.6517 -85.4639 346° North 439 505 33,000  Level Indianapolis Center
Thu 12:40:50 PM 38.7703 -85.4997 347° North 439 505 33,000 -195 Level Indianapolis Center
Thu 12:41:52 PM 38.8881 -85.5372 346° North 438 504 32,600 -629 Descending Indianapolis Center
Thu 12:42:54 PM 39.0067 -85.5739 346° North 440 506 31,700 -919 Descending Indianapolis Center
Thu 12:43:56 PM 39.1247 -85.6103 347° North 440 506 30,700 -823 Descending Indianapolis Center
Thu 12:44:58 PM 39.2442 -85.6475 346° North 443 510 30,000 -585 Descending Indianapolis Center
Thu 12:45:59 PM 39.3906 -85.6928 347° North 450 518 29,500 -683 Descending Indianapolis Center
Thu 12:47:01 PM 39.5144 -85.7328 346° North 460 529 28,600 -726 Descending Indianapolis Center
Thu 12:48:03 PM 39.6381 -85.7711 347° North 460 529 28,000 -290 Descending Indianapolis Center
Thu 12:49:05 PM 39.7603 -85.8083 347° North 459 528 28,000 -629 Level Indianapolis Center
Thu 12:50:07 PM 39.8817 -85.8481 346° North 457 526 26,700 -1,902 Descending Indianapolis Center
Thu 12:51:08 PM 40.0233 -85.8944 346° North 447 514 24,100 -1,317 Descending Indianapolis Center
Thu 12:52:10 PM 40.1403 -85.9317 346° North 440 506 24,000 -52 Descending Indianapolis Center
Thu 12:53:04 PM 40.2303 -85.9750 340° North 438 504 24,000 -621 Level Chicago Center
Thu 12:54:06 PM 40.3622 -86.0478 337° Northwest 433 498 22,800 -1,152 Descending Chicago Center
Thu 12:55:09 PM 40.4728 -86.1089 337° Northwest 434 499 21,600 -1,248 Descending Chicago Center
Thu 12:56:11 PM 40.5828 -86.1686 338° Northwest 431 496 20,200 -1,597 Descending Chicago Center
Thu 12:57:13 PM 40.6894 -86.2278 337° Northwest 418 481 18,300 -1,887 Descending Chicago Center
Thu 12:58:15 PM 40.7964 -86.2908 336° Northwest 408 470 16,300 -2,032 Descending Chicago Center
Thu 12:59:17 PM 40.8986 -86.3467 338° Northwest 398 458 14,100 -2,032 Descending Chicago Center
Thu 01:00:19 PM 40.9950 -86.4067 335° Northwest 387 445 12,100 -1,452 Descending Chicago Center
Thu 01:01:21 PM 41.0814 -86.5283 313° West 377 434 11,100 -774 Descending Chicago Center
Thu 01:02:23 PM 41.1533 -86.6308 313° West 379 436 10,500 -484 Descending Chicago Center
Thu 01:03:25 PM 41.2283 -86.7378 313° West 380 437 10,100 -194 Descending Chicago Center
Thu 01:04:27 PM 41.2975 -86.8389 312° West 374 430 10,100 -48 Level Chicago Center
Thu 01:05:29 PM 41.3667 -86.9392 313° West 373 429 10,000 -384 Descending Chicago Center
Thu 01:06:32 PM 41.4222 -87.0206 312° West 307 353 9,300 -1,536 Descending Chicago Center
Thu 01:07:34 PM 41.4844 -87.1142 312° West 286 329 6,800 -1,645 Descending Chicago Center
Thu 01:08:36 PM 41.5108 -87.2158 289° West 296 341 5,900 -823 Descending Chicago Center
Thu 01:09:38 PM 41.5225 -87.3208 278° West 294 338 5,100 -871 Descending Chicago Center
Thu 01:10:40 PM 41.5300 -87.4244 276° West 287 330 4,100 -532 Descending Chicago Center
Thu 01:11:42 PM 41.5478 -87.5225 284° West 279 321 4,000 -97 Descending Chicago Center
Thu 01:12:44 PM 41.5750 -87.6394 287° West 277 319 3,900 -484 Descending Chicago Center
Thu 01:13:46 PM 41.5967 -87.7369 287° West 278 320 3,000 -484 Descending Chicago Center
Thu 01:14:48 PM 41.6178 -87.8292 287° West 270 311 2,900 -290 Descending Chicago Center
Thu 01:15:50 PM 41.6442 -87.8967 298° West 233 268 2,400 -192 Descending Chicago Center
Thu 01:16:53 PM 41.7003 -87.8606 26° Northeast 202 232 2,500 -240 Climbing Chicago Center
Thu 01:17:55 PM 41.7333 -87.8181 44° Northeast 178 205 1,900 -677 Descending Chicago Center
Thu 01:18:57 PM 41.7619 -87.7828 43° Northeast 159 183 1,100 -435 Descending Chicago Center
Thu 01:19:59 PM 41.7894 -87.7469 44° Northeast 156 180 1,000 -97 Descending Chicago Center

Login

Don't have an account? Register now (free) for customized features, flight alerts, and more!